Time,TemperatureF,DewpointF,PressureIn,WindDirection,WindDirectionDegrees,WindSpeedMPH,WindSpeedGustMPH,Humidity,HourlyPrecipIn,Conditions,Clouds,dailyrainin,SoftwareType,DateUTC
2013-01-13 00:02:00,3.0,-4.0,29.93,NE,44,0.0,0.0,72,0.00,,,0.02,,2013-01-13 08:02:00,
2013-01-13 00:11:00,3.0,-4.0,29.93,NE,44,0.0,0.0,72,0.00,,,0.02,,2013-01-13 08:11:00,
2013-01-13 00:22:00,4.0,-3.0,29.93,NE,44,0.0,0.0,72,0.00,,,0.02,,2013-01-13 08:22:00,
2013-01-13 00:32:00,4.0,-2.0,29.93,NE,44,0.0,0.0,75,0.00,,,0.02,,2013-01-13 08:32:00,
2013-01-13 00:42:00,4.0,-2.0,29.93,NE,44,0.0,0.0,75,0.00,,,0.02,,2013-01-13 08:42:00,
2013-01-13 00:52:00,4.0,-2.0,29.93,NE,44,0.0,0.0,74,0.00,,,0.02,,2013-01-13 08:52:00,
2013-01-13 01:02:00,3.0,-3.0,29.93,NE,44,0.0,0.0,74,0.00,,,0.02,,2013-01-13 09:02:00,
2013-01-13 01:11:00,3.0,-4.0,29.93,NE,44,0.0,0.0,73,0.00,,,0.02,,2013-01-13 09:11:00,
2013-01-13 01:22:00,3.0,-4.0,29.93,NE,44,0.0,0.0,73,0.00,,,0.02,,2013-01-13 09:22:00,
2013-01-13 01:32:00,2.0,-4.0,29.93,NE,44,0.0,0.0,74,0.00,,,0.02,,2013-01-13 09:32:00,
2013-01-13 01:42:00,2.0,-4.0,29.93,NE,44,0.0,0.0,74,0.00,,,0.02,,2013-01-13 09:42:00,
2013-01-13 01:52:00,2.0,-4.0,29.94,NE,44,0.0,0.0,74,0.00,,,0.02,,2013-01-13 09:52:00,
2013-01-13 02:02:00,2.0,-4.0,29.94,NE,42,0.0,0.0,74,0.00,,,0.02,,2013-01-13 10:02:00,
2013-01-13 02:11:00,2.0,-4.0,29.94,NE,42,0.0,0.0,74,0.00,,,0.02,,2013-01-13 10:11:00,
2013-01-13 02:22:00,2.0,-4.0,29.94,NE,44,0.0,0.0,74,0.00,,,0.02,,2013-01-13 10:22:00,
2013-01-13 02:32:00,1.0,-6.0,29.94,NE,44,0.0,0.0,73,0.00,,,0.02,,2013-01-13 10:32:00,
2013-01-13 02:42:00,1.0,-6.0,29.94,NE,44,0.0,0.0,73,0.00,,,0.02,,2013-01-13 10:42:00,
2013-01-13 02:52:00,1.0,-6.0,29.94,NE,44,0.0,0.0,73,0.00,,,0.02,,2013-01-13 10:52:00,
2013-01-13 03:02:00,2.0,-4.0,29.93,NE,44,0.0,0.0,74,0.00,,,0.02,,2013-01-13 11:02:00,
2013-01-13 03:11:00,2.0,-4.0,29.93,NE,44,0.0,0.0,74,0.00,,,0.02,,2013-01-13 11:11:00,
2013-01-13 03:22:00,2.0,-4.0,29.94,NE,44,0.0,0.0,74,0.00,,,0.02,,2013-01-13 11:22:00,
2013-01-13 03:32:00,1.0,-6.0,29.94,NE,44,0.0,0.0,73,0.00,,,0.02,,2013-01-13 11:32:00,
2013-01-13 03:42:00,1.0,-6.0,29.94,NE,44,0.0,0.0,73,0.00,,,0.02,,2013-01-13 11:42:00,
2013-01-13 03:52:00,1.0,-6.0,29.94,NE,42,0.0,0.0,73,0.00,,,0.02,,2013-01-13 11:52:00,
2013-01-13 04:02:00,1.0,-6.0,29.93,NE,44,0.0,0.0,73,0.00,,,0.02,,2013-01-13 12:02:00,
2013-01-13 04:12:00,1.0,-6.0,29.93,NE,44,0.0,0.0,73,0.00,,,0.02,,2013-01-13 12:12:00,
2013-01-13 04:22:00,1.0,-6.0,29.93,NE,44,0.0,0.0,73,0.00,,,0.02,,2013-01-13 12:22:00,
2013-01-13 04:32:00,1.0,-6.0,29.93,NE,44,0.0,0.0,73,0.00,,,0.02,,2013-01-13 12:32:00,
2013-01-13 04:42:00,1.0,-6.0,29.93,NE,44,0.0,0.0,73,0.00,,,0.02,,2013-01-13 12:42:00,
2013-01-13 04:52:00,0.0,-7.0,29.93,NE,44,0.0,0.0,72,0.00,,,0.02,,2013-01-13 12:52:00,
2013-01-13 05:02:00,0.0,-7.0,29.93,NE,44,0.0,0.0,72,0.00,,,0.02,,2013-01-13 13:02:00,
2013-01-13 05:12:00,0.0,-7.0,29.93,NE,44,0.0,0.0,72,0.00,,,0.02,,2013-01-13 13:12:00,
2013-01-13 07:02:00,1.0,-6.0,29.95,NE,42,0.0,0.0,73,0.00,,,0.02,,2013-01-13 15:02:00,
2013-01-13 07:12:00,1.0,-6.0,29.95,NE,42,0.0,0.0,73,0.00,,,0.02,,2013-01-13 15:12:00,
2013-01-13 07:52:00,1.0,-5.0,29.95,NE,44,0.0,0.0,74,0.00,,,0.02,,2013-01-13 15:52:00,
2013-01-13 08:02:00,1.0,-5.0,29.96,NE,42,0.0,0.0,74,0.00,,,0.02,,2013-01-13 16:02:00,
2013-01-13 08:12:00,1.0,-5.0,29.96,NE,42,0.0,0.0,74,0.00,,,0.02,,2013-01-13 16:12:00,
2013-01-13 08:22:00,4.0,-2.0,29.96,NE,42,0.0,0.0,74,0.00,,,0.02,,2013-01-13 16:22:00,
2013-01-13 08:33:00,8.0,2.0,29.96,NE,42,0.0,0.0,77,0.00,,,0.02,,2013-01-13 16:33:00,
2013-01-13 08:42:00,8.0,2.0,29.96,NE,42,0.0,0.0,77,0.00,,,0.02,,2013-01-13 16:42:00,
2013-01-13 08:53:00,12.0,6.0,29.95,ENE,62,0.0,0.0,77,0.00,,,0.02,,2013-01-13 16:53:00,
2013-01-13 09:02:00,12.0,6.0,29.95,ENE,62,0.0,0.0,77,0.00,,,0.02,,2013-01-13 17:02:00,
2013-01-13 09:12:00,12.0,6.0,29.95,ENE,62,0.0,0.0,77,0.00,,,0.02,,2013-01-13 17:12:00,
2013-01-13 09:22:00,15.0,9.0,29.96,SW,224,0.0,0.0,77,0.00,,,0.02,,2013-01-13 17:22:00,
2013-01-13 09:32:00,18.0,12.0,29.96,SW,224,0.0,0.0,77,0.00,,,0.02,,2013-01-13 17:32:00,
2013-01-13 09:52:00,20.0,4.0,29.95,SW,223,0.0,0.0,48,0.00,,,0.02,,2013-01-13 17:52:00,
2013-01-13 10:02:00,22.0,5.0,29.95,SW,223,0.0,0.0,47,0.00,,,0.02,,2013-01-13 18:02:00,
2013-01-13 10:12:00,22.0,5.0,29.95,SW,223,0.0,0.0,47,0.00,,,0.02,,2013-01-13 18:12:00,
2013-01-13 10:22:00,24.0,-2.0,29.94,South,191,1.0,6.0,32,0.00,,,0.02,,2013-01-13 18:22:00,
2013-01-13 10:32:00,24.0,-2.0,29.94,SW,230,1.0,6.0,32,0.00,,,0.02,,2013-01-13 18:32:00,
2013-01-13 10:42:00,24.0,-2.0,29.94,SW,230,1.0,6.0,32,0.00,,,0.02,,2013-01-13 18:42:00,
2013-01-13 10:53:00,25.0,-5.0,29.93,SW,232,1.0,0.0,26,0.00,,,0.02,,2013-01-13 18:53:00,
2013-01-13 11:02:00,26.0,-4.0,29.93,SW,220,0.0,6.0,26,0.00,,,0.02,,2013-01-13 19:02:00,
2013-01-13 11:11:00,26.0,-4.0,29.93,SW,220,0.0,6.0,26,0.00,,,0.02,,2013-01-13 19:11:00,
2013-01-13 11:22:00,28.0,-1.0,29.93,South,189,0.0,5.0,28,0.00,,,0.02,,2013-01-13 19:22:00,
2013-01-13 11:32:00,28.0,-1.0,29.93,South,189,0.0,5.0,28,0.00,,,0.02,,2013-01-13 19:32:00,
2013-01-13 11:42:00,28.0,-1.0,29.93,South,189,0.0,5.0,28,0.00,,,0.02,,2013-01-13 19:42:00,
2013-01-13 11:53:00,29.0,0.0,29.92,SSW,193,2.0,9.0,28,0.00,,,0.02,,2013-01-13 19:53:00,
2013-01-13 12:02:00,29.0,0.0,29.91,South,188,0.0,2.0,28,0.00,,,0.02,,2013-01-13 20:02:00,
2013-01-13 12:12:00,29.0,0.0,29.91,South,188,0.0,2.0,28,0.00,,,0.02,,2013-01-13 20:12:00,
2013-01-13 12:22:00,28.0,-2.0,29.90,SW,223,3.0,10.0,27,0.00,,,0.02,,2013-01-13 20:22:00,
2013-01-13 12:32:00,29.0,0.0,29.89,South,188,2.0,6.0,28,0.00,,,0.02,,2013-01-13 20:32:00,
2013-01-13 12:42:00,29.0,0.0,29.89,South,188,2.0,6.0,28,0.00,,,0.02,,2013-01-13 20:42:00,
2013-01-13 12:53:00,29.0,0.0,29.88,WSW,244,3.0,10.0,28,0.00,,,0.01,,2013-01-13 20:53:00,
2013-01-13 13:02:00,29.0,-3.0,29.88,WSW,250,4.0,7.0,24,0.00,,,0.01,,2013-01-13 21:02:00,
2013-01-13 13:12:00,29.0,-3.0,29.88,WSW,250,4.0,7.0,24,0.00,,,0.01,,2013-01-13 21:12:00,
2013-01-13 13:22:00,30.0,-2.0,29.88,SSW,200,4.0,9.0,24,0.00,,,0.01,,2013-01-13 21:22:00,
2013-01-13 13:32:00,29.0,-3.0,29.88,SW,236,2.0,9.0,24,0.00,,,0.01,,2013-01-13 21:32:00,
2013-01-13 13:42:00,29.0,-3.0,29.88,SW,236,2.0,9.0,24,0.00,,,0.01,,2013-01-13 21:42:00,
2013-01-13 13:53:00,29.0,0.0,29.88,South,188,0.0,6.0,28,0.00,,,0.01,,2013-01-13 21:53:00,
2013-01-13 14:02:00,29.0,-4.0,29.88,WSW,240,3.0,6.0,23,0.00,,,0.01,,2013-01-13 22:02:00,
2013-01-13 14:11:00,29.0,-4.0,29.88,WSW,240,3.0,6.0,23,0.00,,,0.01,,2013-01-13 22:11:00,
2013-01-13 14:22:00,29.0,-2.0,29.88,SW,232,1.0,10.0,26,0.00,,,0.01,,2013-01-13 22:22:00,
2013-01-13 14:32:00,28.0,-2.0,29.89,SSW,209,2.0,7.0,26,0.00,,,0.00,,2013-01-13 22:32:00,
2013-01-13 14:42:00,28.0,-2.0,29.89,SSW,209,2.0,7.0,26,0.00,,,0.00,,2013-01-13 22:42:00,
2013-01-13 14:52:00,28.0,-2.0,29.89,South,184,1.0,5.0,26,0.00,,,0.00,,2013-01-13 22:52:00,
2013-01-13 15:02:00,28.0,-2.0,29.89,SSW,203,2.0,7.0,27,0.00,,,0.00,,2013-01-13 23:02:00,
2013-01-13 15:12:00,28.0,-2.0,29.89,SSW,203,2.0,7.0,27,0.00,,,0.00,,2013-01-13 23:12:00,
2013-01-13 15:22:00,26.0,-3.0,29.89,SW,222,1.0,6.0,27,0.00,,,0.00,,2013-01-13 23:22:00,
2013-01-13 15:32:00,26.0,-3.0,29.89,SW,226,3.0,7.0,27,0.00,,,0.00,,2013-01-13 23:32:00,
2013-01-13 15:42:00,26.0,-3.0,29.89,SW,226,3.0,7.0,27,0.00,,,0.00,,2013-01-13 23:42:00,
2013-01-13 15:53:00,26.0,-3.0,29.89,SW,223,1.0,7.0,27,0.00,,,0.00,,2013-01-13 23:53:00,
2013-01-13 16:02:00,25.0,-4.0,29.89,SW,227,2.0,6.0,27,0.00,,,0.00,,2013-01-14 00:02:00,
2013-01-13 16:12:00,25.0,-4.0,29.89,SW,227,2.0,6.0,27,0.00,,,0.00,,2013-01-14 00:12:00,
2013-01-13 16:22:00,24.0,-5.0,29.88,SW,219,0.0,0.0,27,0.00,,,0.00,,2013-01-14 00:22:00,
2013-01-13 16:32:00,23.0,-1.0,29.88,SW,223,0.0,0.0,34,0.00,,,0.00,,2013-01-14 00:32:00,
2013-01-13 16:42:00,23.0,-1.0,29.88,SW,223,0.0,0.0,34,0.00,,,0.00,,2013-01-14 00:42:00,
2013-01-13 16:52:00,23.0,-1.0,29.89,SSW,213,0.0,0.0,34,0.00,,,0.00,,2013-01-14 00:52:00,
2013-01-13 17:02:00,22.0,-2.0,29.89,NW,304,0.0,0.0,34,0.00,,,0.00,,2013-01-14 01:02:00,
2013-01-13 17:12:00,22.0,-2.0,29.89,NW,304,0.0,0.0,34,0.00,,,0.00,,2013-01-14 01:12:00,
2013-01-13 17:22:00,22.0,-2.0,29.89,NW,304,0.0,0.0,34,0.00,,,0.00,,2013-01-14 01:22:00,
2013-01-13 17:32:00,21.0,-1.0,29.89,WSW,243,0.0,0.0,37,0.00,,,0.00,,2013-01-14 01:32:00,
2013-01-13 17:42:00,21.0,-1.0,29.89,WSW,243,0.0,0.0,37,0.00,,,0.00,,2013-01-14 01:42:00,
2013-01-13 17:52:00,20.0,-2.0,29.89,WSW,243,0.0,0.0,37,0.00,,,0.00,,2013-01-14 01:52:00,
2013-01-13 18:02:00,18.0,-1.0,29.90,WSW,243,0.0,0.0,43,0.00,,,0.00,,2013-01-14 02:02:00,
2013-01-13 18:12:00,18.0,0.0,29.90,WSW,243,0.0,0.0,44,0.00,,,0.00,,2013-01-14 02:12:00,
2013-01-13 18:22:00,18.0,0.0,29.90,WSW,243,0.0,0.0,44,0.00,,,0.00,,2013-01-14 02:22:00,
2013-01-13 18:32:00,16.0,0.0,29.90,WSW,243,0.0,0.0,48,0.00,,,0.00,,2013-01-14 02:32:00,
2013-01-13 18:42:00,16.0,0.0,29.90,WSW,243,0.0,0.0,48,0.00,,,0.00,,2013-01-14 02:42:00,
2013-01-13 18:52:00,16.0,0.0,29.91,WSW,243,0.0,0.0,49,0.00,,,0.00,,2013-01-14 02:52:00,
2013-01-13 19:02:00,15.0,-1.0,29.91,WSW,243,0.0,0.0,49,0.00,,,0.00,,2013-01-14 03:02:00,
2013-01-13 19:12:00,15.0,-1.0,29.91,WSW,243,0.0,0.0,49,0.00,,,0.00,,2013-01-14 03:12:00,
2013-01-13 19:22:00,14.0,-2.0,29.91,WSW,243,0.0,0.0,49,0.00,,,0.00,,2013-01-14 03:22:00,
2013-01-13 19:32:00,13.0,-3.0,29.91,WSW,243,0.0,0.0,49,0.00,,,0.00,,2013-01-14 03:32:00,
2013-01-13 19:42:00,13.0,-3.0,29.91,WSW,243,0.0,0.0,49,0.00,,,0.00,,2013-01-14 03:42:00,
2013-01-13 19:53:00,13.0,-3.0,29.91,WSW,243,0.0,0.0,49,0.00,,,0.00,,2013-01-14 03:53:00,
2013-01-13 20:02:00,12.0,-3.0,29.91,WSW,243,0.0,0.0,49,0.00,,,0.00,,2013-01-14 04:02:00,
2013-01-13 20:11:00,12.0,-3.0,29.91,WSW,243,0.0,0.0,49,0.00,,,0.00,,2013-01-14 04:11:00,
2013-01-13 20:22:00,12.0,-3.0,29.91,WSW,243,0.0,0.0,49,0.00,,,0.00,,2013-01-14 04:22:00,
2013-01-13 20:32:00,11.0,-4.0,29.91,WSW,243,0.0,0.0,49,0.00,,,0.00,,2013-01-14 04:32:00,
2013-01-13 20:42:00,11.0,-4.0,29.91,WSW,243,0.0,0.0,49,0.00,,,0.00,,2013-01-14 04:42:00,
2013-01-13 20:52:00,11.0,-4.0,29.91,WSW,243,0.0,0.0,49,0.00,,,0.00,,2013-01-14 04:52:00,
2013-01-13 21:03:00,10.0,-5.0,29.91,WSW,244,0.0,0.0,49,0.00,,,0.00,,2013-01-14 05:03:00,
2013-01-13 21:12:00,10.0,-5.0,29.91,WSW,244,0.0,0.0,49,0.00,,,0.00,,2013-01-14 05:12:00,
2013-01-13 21:22:00,10.0,-5.0,29.92,WSW,244,0.0,0.0,49,0.00,,,0.00,,2013-01-14 05:22:00,
2013-01-13 21:32:00,9.0,-6.0,29.92,WSW,246,0.0,0.0,49,0.00,,,0.00,,2013-01-14 05:32:00,
2013-01-13 21:42:00,9.0,-6.0,29.92,WSW,246,0.0,0.0,49,0.00,,,0.00,,2013-01-14 05:42:00,
2013-01-13 21:52:00,9.0,-6.0,29.93,East,93,0.0,0.0,49,0.00,,,0.00,,2013-01-14 05:52:00,
2013-01-13 22:02:00,9.0,-6.0,29.93,East,88,0.0,0.0,49,0.00,,,0.00,,2013-01-14 06:02:00,
2013-01-13 22:11:00,9.0,-6.0,29.93,East,88,0.0,0.0,49,0.00,,,0.00,,2013-01-14 06:11:00,
2013-01-13 22:22:00,9.0,-6.0,29.93,NE,34,0.0,0.0,49,0.00,,,0.00,,2013-01-14 06:22:00,
2013-01-13 22:32:00,9.0,-6.0,29.93,NE,34,0.0,0.0,49,0.00,,,0.00,,2013-01-14 06:32:00,
2013-01-13 22:42:00,9.0,-6.0,29.93,NE,34,0.0,0.0,49,0.00,,,0.00,,2013-01-14 06:42:00,
2013-01-13 22:52:00,9.0,-6.0,29.94,NE,34,0.0,0.0,49,0.00,,,0.00,,2013-01-14 06:52:00,
2013-01-13 23:01:00,9.0,-3.0,29.94,NE,35,0.0,0.0,57,0.00,,,0.00,,2013-01-14 07:01:00,
2013-01-13 23:11:00,9.0,-3.0,29.94,NE,35,0.0,0.0,57,0.00,,,0.00,,2013-01-14 07:11:00,
2013-01-13 23:22:00,8.0,-4.0,29.95,NE,35,0.0,0.0,57,0.00,,,0.00,,2013-01-14 07:22:00,
2013-01-13 23:32:00,8.0,-4.0,29.95,NE,35,0.0,0.0,57,0.00,,,0.00,,2013-01-14 07:32:00,
2013-01-13 23:42:00,8.0,-4.0,29.95,NE,35,0.0,0.0,57,0.00,,,0.00,,2013-01-14 07:42:00,
2013-01-13 23:52:00,7.0,-5.0,29.95,NE,35,0.0,0.0,57,0.00,,,0.00,,2013-01-14 07:52:00,